createdAt,value
2023-05-16T00:02:19.400Z,9.44
2023-05-16T00:05:26.005Z,9.48
2023-05-16T00:08:32.616Z,9.49
2023-05-16T00:11:38.278Z,9.47
2023-05-16T00:14:48.358Z,9.45
2023-05-16T00:17:58.219Z,9.42
2023-05-16T00:21:04.970Z,9.38
2023-05-16T00:24:11.680Z,9.38
2023-05-16T00:27:18.097Z,9.41
2023-05-16T00:30:26.559Z,9.45
2023-05-16T00:33:33.042Z,9.40
2023-05-16T00:36:38.999Z,9.39
2023-05-16T00:39:45.509Z,9.35
2023-05-16T00:42:51.818Z,9.32
2023-05-16T00:46:02.391Z,9.31
2023-05-16T00:49:08.693Z,9.33
2023-05-16T00:52:15.146Z,9.25
2023-05-16T00:55:21.171Z,9.34
2023-05-16T00:58:28.591Z,9.33
2023-05-16T01:01:39.715Z,9.35
2023-05-16T01:04:48.607Z,9.20
2023-05-16T01:07:55.290Z,9.41
2023-05-16T01:11:15.159Z,9.39
2023-05-16T01:14:32.680Z,9.38
2023-05-16T01:17:59.590Z,9.35
2023-05-16T01:21:16.174Z,9.38
2023-05-16T01:24:36.311Z,9.38
2023-05-16T01:27:47.651Z,9.31
2023-05-16T01:30:54.963Z,9.25
2023-05-16T01:34:02.845Z,9.20
2023-05-16T01:37:22.703Z,9.02
2023-05-16T01:40:41.913Z,9.13
2023-05-16T01:43:56.238Z,9.08
2023-05-16T01:47:11.571Z,9.07
2023-05-16T01:50:19.894Z,9.05
2023-05-16T01:53:36.714Z,9.01
2023-05-16T01:56:47.901Z,8.97
2023-05-16T01:59:57.909Z,8.92
2023-05-16T02:03:03.762Z,8.88
2023-05-16T02:06:10.875Z,8.85
2023-05-16T02:09:16.549Z,8.83
2023-05-16T02:12:23.209Z,8.84
2023-05-16T02:15:31.996Z,8.87
2023-05-16T02:18:39.037Z,8.88
2023-05-16T02:21:44.598Z,8.82
2023-05-16T02:24:51.143Z,8.80
2023-05-16T02:27:57.657Z,8.77
2023-05-16T02:31:07.222Z,8.73
2023-05-16T02:34:12.903Z,8.69
2023-05-16T02:37:19.285Z,8.70
2023-05-16T02:40:24.849Z,8.70
2023-05-16T02:43:31.568Z,8.74
2023-05-16T02:46:40.185Z,8.76
2023-05-16T02:49:46.629Z,8.84
2023-05-16T02:52:52.598Z,8.83
2023-05-16T02:55:58.991Z,8.86
2023-05-16T02:59:04.637Z,8.89
2023-05-16T03:02:13.860Z,8.98
2023-05-16T03:05:20.185Z,9.06
2023-05-16T03:08:27.795Z,9.08
2023-05-16T03:11:36.809Z,9.11
2023-05-16T03:14:43.380Z,9.15
2023-05-16T03:17:51.795Z,9.19
2023-05-16T03:20:58.493Z,9.20
2023-05-16T03:24:06.010Z,9.26
2023-05-16T03:27:12.553Z,9.30
2023-05-16T03:30:19.648Z,9.32
2023-05-16T03:33:29.175Z,9.38
2023-05-16T03:36:34.824Z,9.44
2023-05-16T03:39:41.170Z,9.47
2023-05-16T03:42:46.766Z,9.45
2023-05-16T03:45:53.163Z,9.42
2023-05-16T03:49:01.553Z,9.36
2023-05-16T03:52:08.674Z,9.34
2023-05-16T03:55:15.451Z,9.27
2023-05-16T03:58:21.817Z,9.32
2023-05-16T04:01:27.878Z,9.30
2023-05-16T04:04:37.029Z,9.33
2023-05-16T04:07:43.880Z,9.39
2023-05-16T04:10:50.214Z,9.42
2023-05-16T04:13:57.266Z,9.42
2023-05-16T04:17:04.132Z,9.45
2023-05-16T04:20:14.206Z,9.46
2023-05-16T04:23:20.604Z,9.60
2023-05-16T04:26:26.025Z,9.71
2023-05-16T04:29:32.383Z,9.81
2023-05-16T04:32:38.420Z,9.92
2023-05-16T04:35:48.825Z,10.02
2023-05-16T04:38:54.402Z,10.14
2023-05-16T04:42:01.696Z,10.22
2023-05-16T04:45:11.250Z,10.31
2023-05-16T04:48:18.134Z,10.39
2023-05-16T04:51:29.582Z,10.50
2023-05-16T04:54:35.916Z,10.62
2023-05-16T04:57:41.475Z,10.73
2023-05-16T05:00:47.834Z,10.80
2023-05-16T05:03:53.335Z,10.79
2023-05-16T05:07:02.532Z,10.85
2023-05-16T05:10:09.033Z,10.93
2023-05-16T05:13:15.390Z,11.00
2023-05-16T05:16:20.989Z,11.07
2023-05-16T05:19:27.550Z,11.15
2023-05-16T05:22:36.146Z,11.28
2023-05-16T05:25:43.181Z,11.38
2023-05-16T05:29:01.083Z,11.48
2023-05-16T05:32:11.869Z,11.56
2023-05-16T05:35:18.346Z,11.63
2023-05-16T05:38:27.492Z,11.74
2023-05-16T05:41:33.077Z,11.76
2023-05-16T05:44:39.482Z,11.91
2023-05-16T05:47:46.441Z,12.01
2023-05-16T05:50:53.420Z,11.89
2023-05-16T05:54:02.218Z,11.95
2023-05-16T05:57:09.367Z,11.85
2023-05-16T06:00:16.751Z,12.09
2023-05-16T06:03:24.209Z,12.15
2023-05-16T06:06:30.304Z,12.15
2023-05-16T06:09:39.598Z,12.07
2023-05-16T06:12:45.168Z,12.10
2023-05-16T06:15:54.628Z,12.07
2023-05-16T06:19:00.423Z,12.01
2023-05-16T06:22:06.900Z,12.01
2023-05-16T06:25:15.820Z,12.06
2023-05-16T06:28:22.229Z,12.17
2023-05-16T06:31:27.872Z,12.30
2023-05-16T06:34:34.365Z,12.25
2023-05-16T06:37:42.074Z,12.26
2023-05-16T06:40:52.566Z,12.30
2023-05-16T06:43:58.155Z,12.44
2023-05-16T06:47:04.902Z,12.52
2023-05-16T06:50:12.497Z,12.50
2023-05-16T06:53:19.015Z,12.69
2023-05-16T06:56:29.062Z,12.72
2023-05-16T06:59:35.533Z,12.90
2023-05-16T07:02:41.197Z,12.92
2023-05-16T07:05:47.767Z,13.02
2023-05-16T07:08:53.313Z,13.21
2023-05-16T07:12:02.743Z,13.35
2023-05-16T07:15:10.101Z,13.42
2023-05-16T07:18:16.557Z,13.56
2023-05-16T07:21:22.129Z,13.70
2023-05-16T07:24:28.555Z,13.88
2023-05-16T07:27:36.901Z,13.97
2023-05-16T07:30:43.267Z,14.00
2023-05-16T07:33:49.822Z,14.08
2023-05-16T07:36:56.421Z,13.12
2023-05-16T07:40:02.317Z,14.24
2023-05-16T07:43:11.455Z,14.26
2023-05-16T07:46:17.464Z,14.31
2023-05-16T07:49:24.005Z,14.37
2023-05-16T07:52:29.687Z,14.48
2023-05-16T07:55:36.269Z,14.64
2023-05-16T07:58:45.577Z,14.71
2023-05-16T08:01:52.249Z,14.76
2023-05-16T08:04:57.826Z,14.81
2023-05-16T08:08:04.489Z,14.93
2023-05-16T08:11:10.254Z,15.02
2023-05-16T08:14:19.503Z,15.10
2023-05-16T08:17:25.237Z,15.12
2023-05-16T08:20:31.790Z,15.15
2023-05-16T08:23:37.382Z,15.15
2023-05-16T08:26:43.776Z,15.20
2023-05-16T08:29:52.093Z,15.27
2023-05-16T08:32:58.604Z,15.39
2023-05-16T08:36:04.504Z,15.54
2023-05-16T08:39:11.802Z,15.62
2023-05-16T08:42:17.662Z,15.69
2023-05-16T08:45:29.184Z,15.80
2023-05-16T08:48:37.553Z,16.00
2023-05-16T08:51:44.691Z,16.13
2023-05-16T08:55:09.249Z,16.17
2023-05-16T08:58:18.632Z,16.21
2023-05-16T09:01:27.529Z,16.27
2023-05-16T09:04:35.499Z,16.33
2023-05-16T09:07:41.135Z,16.42
2023-05-16T09:10:47.707Z,16.52
2023-05-16T09:13:53.553Z,16.65
2023-05-16T09:17:13.605Z,16.78
2023-05-16T09:20:22.152Z,16.89
2023-05-16T09:23:28.876Z,16.92
2023-05-16T09:26:37.425Z,16.92
2023-05-16T09:29:45.111Z,16.93
2023-05-16T09:32:56.383Z,16.98
2023-05-16T09:36:06.020Z,17.02
2023-05-16T09:39:12.572Z,17.02
2023-05-16T09:42:21.030Z,16.98
2023-05-16T09:45:27.084Z,16.92
2023-05-16T09:48:36.722Z,16.93
2023-05-16T09:51:43.901Z,16.90
2023-05-16T09:54:52.004Z,16.88
2023-05-16T09:57:57.689Z,16.96
2023-05-16T10:01:05.291Z,17.02
2023-05-16T10:04:16.394Z,17.19
2023-05-16T10:07:25.961Z,17.17
2023-05-16T10:10:33.441Z,17.59
2023-05-16T10:13:40.592Z,17.74
2023-05-16T10:16:49.778Z,17.89
2023-05-16T10:19:59.649Z,18.02
2023-05-16T10:23:08.864Z,18.26
2023-05-16T10:26:17.322Z,18.38
2023-05-16T10:29:24.034Z,18.55
2023-05-16T10:32:32.289Z,18.70
2023-05-16T10:35:41.754Z,18.72
2023-05-16T10:38:51.160Z,18.75
2023-05-16T10:41:57.665Z,18.82
2023-05-16T10:45:20.034Z,18.89
2023-05-16T10:48:34.736Z,18.84
2023-05-16T10:51:43.895Z,18.75
2023-05-16T10:54:56.383Z,18.74
2023-05-16T10:58:02.807Z,18.79
2023-05-16T11:01:24.450Z,18.93
2023-05-16T11:04:51.967Z,19.00
2023-05-16T11:08:10.345Z,19.13
2023-05-16T11:11:49.624Z,19.51
2023-05-16T11:14:55.954Z,19.80
2023-05-16T11:18:11.280Z,20.01
2023-05-16T11:21:17.152Z,20.25
2023-05-16T11:24:36.424Z,20.29
2023-05-16T11:27:52.019Z,20.11
2023-05-16T11:31:05.592Z,20.07
2023-05-16T11:34:11.472Z,20.14
2023-05-16T11:37:18.621Z,20.27
2023-05-16T11:40:26.962Z,20.36
2023-05-16T11:43:34.313Z,20.43
2023-05-16T11:46:40.130Z,20.13
2023-05-16T11:49:48.758Z,20.07
2023-05-16T11:52:57.835Z,20.06
2023-05-16T11:56:07.734Z,20.06
2023-05-16T11:59:16.058Z,20.12
2023-05-16T12:02:23.000Z,19.90
2023-05-16T12:05:31.410Z,19.90
2023-05-16T12:08:38.851Z,19.87
2023-05-16T12:11:47.994Z,19.70
2023-05-16T12:14:54.681Z,19.97
2023-05-16T12:18:00.841Z,20.07
2023-05-16T12:21:07.767Z,20.09
2023-05-16T12:24:15.727Z,20.16
2023-05-16T12:27:29.730Z,20.19
2023-05-16T12:30:36.797Z,20.30
2023-05-16T12:33:43.597Z,20.29
2023-05-16T12:36:53.937Z,20.29
2023-05-16T12:40:04.515Z,20.26
2023-05-16T12:43:21.017Z,19.91
2023-05-16T12:46:29.253Z,20.12
2023-05-16T12:49:36.863Z,19.96
2023-05-16T12:52:52.634Z,19.72
2023-05-16T12:55:58.225Z,19.61
2023-05-16T12:59:07.493Z,19.45
2023-05-16T13:02:13.059Z,19.39
2023-05-16T13:05:22.335Z,19.24
2023-05-16T13:08:28.611Z,19.22
2023-05-16T13:11:35.016Z,19.25
2023-05-16T13:14:43.957Z,19.21
2023-05-16T13:17:51.598Z,19.29
2023-05-16T13:20:57.231Z,19.25
2023-05-16T13:24:03.641Z,19.13
2023-05-16T13:27:09.353Z,18.99
2023-05-16T13:30:19.030Z,18.93
2023-05-16T13:33:25.190Z,18.93
2023-05-16T13:36:41.571Z,18.88
2023-05-16T13:39:47.950Z,18.80
2023-05-16T13:42:54.659Z,18.64
2023-05-16T13:46:04.087Z,18.44
2023-05-16T13:49:10.544Z,18.29
2023-05-16T13:52:16.748Z,18.11
2023-05-16T13:55:24.042Z,18.03
2023-05-16T13:58:30.339Z,17.91
2023-05-16T14:01:39.750Z,17.92
2023-05-16T14:04:47.260Z,17.89
2023-05-16T14:07:56.193Z,17.85
2023-05-16T14:11:01.817Z,17.80
2023-05-16T14:14:08.167Z,17.74
2023-05-16T14:17:16.798Z,17.65
2023-05-16T14:20:23.551Z,17.50
2023-05-16T14:23:29.141Z,17.35
2023-05-16T14:26:35.619Z,17.28
2023-05-16T14:29:41.596Z,17.24
2023-05-16T14:32:51.002Z,17.23
2023-05-16T14:35:56.750Z,17.24
2023-05-16T14:39:03.841Z,17.23
2023-05-16T14:42:09.862Z,17.17
2023-05-16T14:45:16.393Z,17.11
2023-05-16T14:48:24.697Z,17.04
2023-05-16T14:51:32.590Z,16.98
2023-05-16T14:54:38.547Z,16.74
2023-05-16T14:57:45.597Z,16.80
2023-05-16T15:00:51.573Z,16.77
2023-05-16T15:04:00.829Z,16.70
2023-05-16T15:07:06.446Z,16.70
2023-05-16T15:10:14.253Z,16.64
2023-05-16T15:13:19.883Z,16.58
2023-05-16T15:16:26.732Z,16.52
2023-05-16T15:19:35.339Z,16.43
2023-05-16T15:22:43.277Z,16.41
2023-05-16T15:25:49.687Z,16.32
2023-05-16T15:28:56.183Z,16.18
2023-05-16T15:32:01.961Z,16.04
2023-05-16T15:35:12.287Z,15.95
2023-05-16T15:38:17.933Z,15.87
2023-05-16T15:41:46.431Z,15.80
2023-05-16T15:44:50.515Z,15.74
2023-05-16T15:47:57.213Z,15.70
2023-05-16T15:51:05.632Z,15.56
2023-05-16T15:54:12.428Z,15.40
2023-05-16T15:57:18.233Z,15.15
2023-05-16T16:00:25.082Z,15.05
2023-05-16T16:03:31.002Z,14.90
2023-05-16T16:06:40.396Z,14.65
2023-05-16T16:09:46.048Z,14.48
2023-05-16T16:13:03.778Z,14.32
2023-05-16T16:16:10.231Z,14.19
2023-05-16T16:19:16.764Z,14.06
2023-05-16T16:22:25.176Z,13.91
2023-05-16T16:25:31.652Z,13.83
2023-05-16T16:28:37.262Z,13.73
2023-05-16T16:31:43.771Z,13.78
2023-05-16T16:34:49.727Z,13.79
2023-05-16T16:38:06.828Z,13.81
2023-05-16T16:41:14.709Z,13.84
2023-05-16T16:44:23.033Z,13.82
2023-05-16T16:47:32.699Z,13.85
2023-05-16T16:50:39.458Z,13.92
2023-05-16T16:53:48.148Z,13.94
2023-05-16T16:56:54.922Z,13.91
2023-05-16T17:00:00.834Z,13.88
2023-05-16T17:03:07.591Z,13.85
2023-05-16T17:06:13.290Z,13.72
2023-05-16T17:09:23.758Z,13.67
2023-05-16T17:12:29.247Z,13.56
2023-05-16T17:15:35.923Z,13.48
2023-05-16T17:18:41.683Z,13.47
2023-05-16T17:21:48.184Z,13.38
2023-05-16T17:24:56.860Z,13.25
2023-05-16T17:28:03.291Z,13.11
2023-05-16T17:31:09.066Z,13.01
2023-05-16T17:34:15.880Z,12.90
2023-05-16T17:37:21.386Z,12.82
2023-05-16T17:40:31.079Z,12.65
2023-05-16T17:43:36.589Z,12.45
2023-05-16T17:46:44.914Z,12.34
2023-05-16T17:49:51.042Z,12.13
2023-05-16T17:52:57.646Z,12.13
2023-05-16T17:56:06.357Z,12.11
2023-05-16T17:59:13.908Z,12.01
2023-05-16T18:02:19.517Z,11.84
2023-05-16T18:05:26.195Z,11.84
2023-05-16T18:08:31.983Z,11.81
2023-05-16T18:11:43.487Z,11.71
2023-05-16T18:14:49.346Z,11.68
2023-05-16T18:17:55.846Z,11.55
2023-05-16T18:21:02.208Z,11.51
2023-05-16T18:24:11.862Z,11.46
2023-05-16T18:27:20.437Z,11.46
2023-05-16T18:30:26.904Z,11.43
2023-05-16T18:33:33.077Z,11.43
2023-05-16T18:36:39.517Z,11.44
2023-05-16T18:39:45.309Z,11.37
2023-05-16T18:42:56.515Z,11.35
2023-05-16T18:46:02.795Z,11.32
2023-05-16T18:49:09.417Z,11.29
2023-05-16T18:52:15.176Z,11.29
2023-05-16T18:55:21.650Z,11.21
2023-05-16T18:58:29.977Z,11.09
2023-05-16T19:01:37.288Z,11.00
2023-05-16T19:04:42.958Z,10.84
2023-05-16T19:07:49.432Z,10.75
2023-05-16T19:10:55.241Z,10.75
2023-05-16T19:14:04.382Z,10.74
2023-05-16T19:17:09.950Z,10.79
2023-05-16T19:20:16.510Z,10.80
2023-05-16T19:23:22.331Z,10.71
2023-05-16T19:26:30.139Z,10.76
2023-05-16T19:29:38.668Z,10.59
2023-05-16T19:32:45.151Z,10.39
2023-05-16T19:35:51.957Z,10.41
2023-05-16T19:39:35.869Z,10.51
2023-05-16T19:42:53.434Z,10.64
2023-05-16T19:46:02.625Z,10.67
2023-05-16T19:49:08.846Z,10.65
2023-05-16T19:52:15.457Z,10.64
2023-05-16T19:55:20.991Z,10.60
2023-05-16T19:58:27.669Z,10.54
2023-05-16T20:01:35.952Z,10.48
2023-05-16T20:04:42.470Z,10.42
2023-05-16T20:07:48.317Z,10.53
2023-05-16T20:10:54.731Z,10.58
2023-05-16T20:14:00.493Z,10.56
2023-05-16T20:17:10.118Z,10.60
2023-05-16T20:20:15.823Z,10.69
2023-05-16T20:23:22.293Z,10.74
2023-05-16T20:26:28.189Z,10.74
2023-05-16T20:29:34.777Z,10.71
2023-05-16T20:32:43.345Z,10.78
2023-05-16T20:35:49.782Z,10.66
2023-05-16T20:38:55.399Z,10.63
2023-05-16T20:42:01.899Z,10.62
2023-05-16T20:45:08.498Z,10.49
2023-05-16T20:48:17.669Z,10.41
2023-05-16T20:51:23.181Z,10.29
2023-05-16T20:54:29.815Z,10.28
2023-05-16T20:57:35.536Z,10.19
2023-05-16T21:00:43.168Z,10.15
2023-05-16T21:03:51.823Z,10.08
2023-05-16T21:06:58.288Z,9.93
2023-05-16T21:10:04.586Z,9.92
2023-05-16T21:13:11.189Z,9.97
2023-05-16T21:16:16.909Z,9.98
2023-05-16T21:19:26.635Z,10.00
2023-05-16T21:22:32.632Z,9.92
2023-05-16T21:25:39.382Z,9.85
2023-05-16T21:28:54.448Z,9.75
2023-05-16T21:32:01.882Z,9.59
2023-05-16T21:35:11.518Z,9.57
2023-05-16T21:38:18.188Z,9.49
2023-05-16T21:41:23.869Z,9.44
2023-05-16T21:44:31.993Z,9.29
2023-05-16T21:47:37.630Z,9.16
2023-05-16T21:50:46.981Z,9.31
2023-05-16T21:53:52.529Z,9.28
2023-05-16T21:56:59.391Z,9.07
2023-05-16T22:00:09.712Z,9.19
2023-05-16T22:03:19.245Z,9.15
2023-05-16T22:06:28.149Z,9.05
2023-05-16T22:09:34.588Z,9.02
2023-05-16T22:12:40.239Z,9.00
2023-05-16T22:15:59.506Z,8.98
2023-05-16T22:19:09.856Z,8.99
2023-05-16T22:22:19.797Z,9.06
2023-05-16T22:25:25.851Z,8.94
2023-05-16T22:28:32.489Z,9.05
2023-05-16T22:31:38.167Z,8.81
2023-05-16T22:34:44.474Z,8.89
2023-05-16T22:37:52.993Z,8.90
2023-05-16T22:40:59.594Z,8.80
2023-05-16T22:44:05.605Z,8.88
2023-05-16T22:47:11.935Z,8.78
2023-05-16T22:50:17.890Z,8.93
2023-05-16T22:53:27.351Z,8.93
2023-05-16T22:56:32.938Z,9.04
2023-05-16T22:59:39.326Z,9.04
2023-05-16T23:02:45.014Z,9.18
2023-05-16T23:05:51.468Z,9.20
2023-05-16T23:09:00.348Z,9.25
2023-05-16T23:12:07.098Z,9.29
2023-05-16T23:15:13.938Z,9.21
2023-05-16T23:18:20.348Z,9.16
2023-05-16T23:21:26.331Z,9.15
2023-05-16T23:24:35.669Z,9.20
2023-05-16T23:27:41.190Z,9.19
2023-05-16T23:30:47.626Z,9.19
2023-05-16T23:33:53.468Z,9.24
2023-05-16T23:36:59.963Z,9.27
2023-05-16T23:40:10.222Z,9.26
2023-05-16T23:43:16.850Z,9.33
2023-05-16T23:46:22.332Z,9.27
2023-05-16T23:49:28.751Z,9.21
2023-05-16T23:52:34.633Z,9.20
2023-05-16T23:55:43.781Z,9.19
2023-05-16T23:58:49.535Z,9.16
